Time;durP1;ratioP1;P1;durP2;ratioP2;P2;SDS_P1;SDS_P2;PMS_P1;PMS_P2;Temp;Humidity;BMP_temperature;BMP_pressure;BME280_temperature;BME280_humidity;BME280_pressure;Samples;Min_cycle;Max_cycle;Signal;HPM_P1;HPM_P2
2023/05/31 00:01:08;;;;;;;4.05;1.50;;;11.10;99.90;;;;;;5029285;28;20052;-72
2023/05/31 00:03:35;;;;;;;4.75;1.67;;;11.10;99.90;;;;;;5014286;28;20055;-73
2023/05/31 00:06:01;;;;;;;4.38;1.70;;;11.10;99.90;;;;;;5031704;28;20040;-73
2023/05/31 00:08:26;;;;;;;7.20;1.60;;;11.10;99.90;;;;;;5046209;28;20509;-73
2023/05/31 00:10:52;;;;;;;3.90;1.55;;;11.00;99.90;;;;;;5016065;28;20128;-73
2023/05/31 00:13:17;;;;;;;4.70;1.30;;;11.00;99.90;;;;;;5016131;28;20035;-73
2023/05/31 00:15:43;;;;;;;4.00;1.52;;;11.10;99.90;;;;;;5012589;28;20410;-72
2023/05/31 00:18:09;;;;;;;3.67;1.40;;;11.00;99.90;;;;;;5033143;28;20156;-73
2023/05/31 00:20:34;;;;;;;4.40;1.73;;;11.00;99.90;;;;;;5027260;28;20786;-73
2023/05/31 00:23:00;;;;;;;6.03;1.90;;;11.00;99.90;;;;;;5041133;28;20041;-73
2023/05/31 00:25:26;;;;;;;3.83;1.63;;;11.00;99.90;;;;;;5050028;28;20128;-72
2023/05/31 00:27:51;;;;;;;4.68;1.55;;;11.00;99.90;;;;;;5030845;28;20037;-72
2023/05/31 00:30:17;;;;;;;5.10;1.65;;;11.00;99.90;;;;;;5028433;28;20045;-73
2023/05/31 00:32:42;;;;;;;2.30;1.10;;;11.00;99.90;;;;;;5023288;28;20036;-73
2023/05/31 00:35:08;;;;;;;2.58;1.02;;;11.00;99.90;;;;;;5027672;28;20041;-73
2023/05/31 00:37:37;;;;;;;4.18;1.50;;;11.00;99.90;;;;;;5029885;28;20208;-73
2023/05/31 00:40:05;;;;;;;4.47;1.67;;;11.00;99.90;;;;;;5030128;28;20051;-73
2023/05/31 00:42:32;;;;;;;3.47;1.38;;;10.90;99.90;;;;;;5027454;28;20029;-73
2023/05/31 00:44:57;;;;;;;4.32;1.20;;;10.90;99.90;;;;;;5047388;28;20170;-73
2023/05/31 00:47:25;;;;;;;3.15;1.33;;;10.90;99.90;;;;;;5029522;28;20119;-73
2023/05/31 00:49:51;;;;;;;4.97;1.52;;;10.90;99.90;;;;;;5046257;28;20521;-73
2023/05/31 00:52:17;;;;;;;6.22;1.52;;;10.90;99.90;;;;;;5012741;28;20394;-72
2023/05/31 00:54:43;;;;;;;3.70;1.50;;;10.90;99.90;;;;;;5011530;28;20537;-73
2023/05/31 00:57:10;;;;;;;3.08;1.05;;;10.80;99.90;;;;;;5024655;28;20036;-73
2023/05/31 00:59:36;;;;;;;3.60;1.20;;;10.80;99.90;;;;;;5030417;28;20204;-73
2023/05/31 01:02:03;;;;;;;3.47;1.13;;;10.80;99.90;;;;;;5027768;28;20106;-73
2023/05/31 01:04:30;;;;;;;5.90;1.65;;;10.80;99.90;;;;;;5030767;28;20428;-73
2023/05/31 01:06:56;;;;;;;4.28;1.30;;;10.70;99.90;;;;;;5025198;28;20540;-72
2023/05/31 01:09:22;;;;;;;3.80;1.73;;;10.70;99.90;;;;;;5021419;28;20037;-73
2023/05/31 01:11:53;;;;;;;3.97;1.40;;;10.70;99.90;;;;;;5011313;28;20052;-73
2023/05/31 01:14:45;;;;;;;3.88;1.63;;;10.70;99.90;;;;;;5025974;28;20041;-73
2023/05/31 01:17:46;;;;;;;3.65;1.00;;;10.70;99.90;;;;;;5030982;28;20064;-73
2023/05/31 01:20:17;;;;;;;4.35;1.33;;;10.60;99.90;;;;;;5044739;28;20056;-73
2023/05/31 01:23:11;;;;;;;3.50;1.10;;;10.60;99.90;;;;;;5028072;28;20037;-73
2023/05/31 01:26:17;;;;;;;3.53;1.27;;;10.50;99.90;;;;;;5023081;28;20049;-73
2023/05/31 01:28:47;;;;;;;3.10;1.02;;;10.50;99.90;;;;;;5039169;28;20093;-73
2023/05/31 01:31:16;;;;;;;3.33;1.15;;;10.40;99.90;;;;;;5025425;28;20044;-73
2023/05/31 01:33:43;;;;;;;3.65;1.15;;;10.40;99.90;;;;;;5026796;28;20068;-73
2023/05/31 01:36:09;;;;;;;4.35;1.30;;;10.40;99.90;;;;;;5029672;28;20076;-73
2023/05/31 01:38:35;;;;;;;3.15;1.13;;;10.30;99.90;;;;;;5026036;28;20076;-73
2023/05/31 01:41:02;;;;;;;3.80;1.30;;;10.30;99.90;;;;;;5010952;28;20052;-72
2023/05/31 01:43:28;;;;;;;2.72;1.10;;;10.30;99.90;;;;;;5010720;28;20040;-73
2023/05/31 01:45:55;;;;;;;3.42;1.08;;;10.30;99.90;;;;;;5026707;28;20116;-73
2023/05/31 01:48:21;;;;;;;3.92;1.50;;;10.30;99.90;;;;;;5046463;28;20179;-73
2023/05/31 01:50:48;;;;;;;3.10;1.10;;;10.30;99.90;;;;;;5021768;28;20037;-73
2023/05/31 01:53:13;;;;;;;2.58;1.10;;;10.30;99.90;;;;;;5044945;28;20147;-72
2023/05/31 01:55:39;;;;;;;2.42;0.90;;;10.30;99.90;;;;;;5043229;28;20049;-73
2023/05/31 01:58:05;;;;;;;3.90;1.08;;;10.20;99.90;;;;;;5029191;28;20049;-73
2023/05/31 02:00:31;;;;;;;4.47;1.17;;;10.20;99.90;;;;;;5043132;28;20398;-73
2023/05/31 02:02:57;;;;;;;2.00;0.80;;;10.20;99.90;;;;;;5039041;28;20231;-73
2023/05/31 02:05:23;;;;;;;1.52;0.60;;;10.20;99.90;;;;;;5020901;28;20033;-73
2023/05/31 02:07:49;;;;;;;3.33;1.08;;;10.20;99.90;;;;;;5022596;28;20049;-73
2023/05/31 02:10:15;;;;;;;3.17;1.20;;;10.10;99.90;;;;;;5037754;28;20040;-73
2023/05/31 02:12:41;;;;;;;2.60;1.25;;;10.00;99.90;;;;;;5007786;28;20041;-73
2023/05/31 02:15:12;;;;;;;4.13;1.05;;;10.10;99.90;;;;;;5040630;28;20440;-73
2023/05/31 02:17:44;;;;;;;4.13;1.23;;;10.00;99.90;;;;;;5021450;28;20280;-72
2023/05/31 02:20:15;;;;;;;3.20;1.02;;;10.10;99.90;;;;;;5019747;28;20048;-73
2023/05/31 02:22:41;;;;;;;3.03;1.10;;;10.00;99.90;;;;;;5021430;28;20033;-73
2023/05/31 02:25:09;;;;;;;2.97;1.20;;;10.00;99.90;;;;;;5017464;28;20427;-73
2023/05/31 02:27:36;;;;;;;3.47;1.40;;;10.00;99.90;;;;;;5020169;28;20053;-73
2023/05/31 02:30:04;;;;;;;2.25;1.00;;;10.10;99.90;;;;;;5018832;28;20410;-73
2023/05/31 02:32:31;;;;;;;2.85;1.45;;;10.00;99.90;;;;;;5017735;28;20111;-73
2023/05/31 02:34:56;;;;;;;5.65;1.48;;;10.00;99.90;;;;;;5020800;28;20163;-73
2023/05/31 02:37:22;;;;;;;5.30;1.42;;;10.00;99.90;;;;;;5017889;28;20461;-73
2023/05/31 02:39:48;;;;;;;3.95;1.23;;;9.90;99.90;;;;;;5017749;28;20049;-73
2023/05/31 02:42:14;;;;;;;4.57;1.58;;;9.90;99.90;;;;;;5003813;28;20445;-73
2023/05/31 02:44:40;;;;;;;4.05;1.17;;;9.90;99.90;;;;;;5019445;28;20041;-73
2023/05/31 02:47:05;;;;;;;5.10;1.45;;;9.90;99.90;;;;;;5019611;28;20227;-73
2023/05/31 02:49:31;;;;;;;3.45;1.35;;;9.80;99.90;;;;;;5019641;28;20118;-73
2023/05/31 02:51:57;;;;;;;4.28;1.40;;;9.80;99.90;;;;;;5019100;28;20621;-73
2023/05/31 02:54:22;;;;;;;3.15;1.40;;;9.80;99.90;;;;;;5017265;28;20033;-73
2023/05/31 02:56:48;;;;;;;3.28;1.58;;;9.80;99.90;;;;;;5022930;28;20033;-73
2023/05/31 02:59:13;;;;;;;3.85;1.15;;;9.80;99.90;;;;;;5007123;28;20102;-73
2023/05/31 03:01:39;;;;;;;5.18;1.63;;;9.80;99.90;;;;;;5005815;28;20398;-73
2023/05/31 03:04:05;;;;;;;3.47;1.15;;;9.80;99.90;;;;;;5026516;28;20045;-73
2023/05/31 03:06:30;;;;;;;4.10;1.30;;;9.70;99.90;;;;;;5026239;28;20052;-73
2023/05/31 03:08:56;;;;;;;3.80;1.00;;;9.70;99.90;;;;;;5027120;28;20052;-73
2023/05/31 03:11:21;;;;;;;1.50;0.57;;;9.80;99.90;;;;;;5024683;28;20132;-73
2023/05/31 03:13:47;;;;;;;1.98;0.80;;;9.70;99.90;;;;;;5010490;28;20044;-73
2023/05/31 03:16:12;;;;;;;5.15;1.00;;;9.70;99.90;;;;;;5030332;28;20188;-73
2023/05/31 03:18:38;;;;;;;2.53;0.82;;;9.60;99.90;;;;;;5026751;28;20037;-73
2023/05/31 03:21:04;;;;;;;1.98;0.90;;;9.50;99.90;;;;;;5023020;28;20044;-73
2023/05/31 03:23:29;;;;;;;3.35;1.00;;;9.50;99.90;;;;;;5015953;28;20623;-73
2023/05/31 03:25:55;;;;;;;2.67;1.05;;;9.50;99.90;;;;;;5034173;28;20410;-73
2023/05/31 03:28:21;;;;;;;1.95;0.90;;;9.50;99.90;;;;;;5049262;28;20398;-73
2023/05/31 03:30:46;;;;;;;3.08;1.00;;;9.40;99.90;;;;;;5030079;28;20124;-73
2023/05/31 03:33:12;;;;;;;3.35;1.27;;;9.40;99.90;;;;;;5031923;28;20039;-73
2023/05/31 03:35:38;;;;;;;4.93;1.20;;;9.40;99.90;;;;;;5027426;28;20037;-73
2023/05/31 03:38:03;;;;;;;4.07;1.10;;;9.40;99.90;;;;;;5044594;28;20036;-73
2023/05/31 03:40:29;;;;;;;2.47;1.23;;;9.40;99.90;;;;;;5031798;28;20587;-73
2023/05/31 03:42:54;;;;;;;4.05;1.58;;;9.40;99.90;;;;;;5028931;28;20032;-73
2023/05/31 03:45:20;;;;;;;3.05;0.75;;;9.40;99.90;;;;;;5032231;28;20037;-73
2023/05/31 03:47:46;;;;;;;2.28;0.98;;;9.40;99.90;;;;;;5029955;28;20037;-73
2023/05/31 03:50:11;;;;;;;3.70;0.95;;;9.40;99.90;;;;;;5013408;28;20060;-73
2023/05/31 03:52:37;;;;;;;2.40;0.93;;;9.40;99.90;;;;;;5007938;28;20745;-73
2023/05/31 03:55:03;;;;;;;2.05;0.80;;;9.50;99.90;;;;;;5014002;28;20107;-73
2023/05/31 03:57:29;;;;;;;4.05;1.00;;;9.50;99.90;;;;;;5032841;28;20029;-72
2023/05/31 03:59:55;;;;;;;2.90;1.02;;;9.40;99.90;;;;;;5031933;28;20405;-72
2023/05/31 04:02:21;;;;;;;3.83;1.70;;;9.40;99.90;;;;;;5028760;28;20494;-72
2023/05/31 04:04:46;;;;;;;5.32;1.23;;;9.40;99.90;;;;;;5040425;28;20041;-73
2023/05/31 04:07:12;;;;;;;2.65;0.95;;;9.40;99.90;;;;;;5022467;28;20085;-73
2023/05/31 04:09:37;;;;;;;4.22;1.40;;;9.50;99.90;;;;;;5042383;28;20157;-73
2023/05/31 04:12:03;;;;;;;4.68;1.40;;;9.50;99.90;;;;;;5049856;28;20225;-73
2023/05/31 04:14:29;;;;;;;6.82;1.70;;;9.60;99.90;;;;;;5029173;28;20037;-73
2023/05/31 04:16:55;;;;;;;6.43;1.52;;;9.50;99.90;;;;;;5029071;28;20045;-73
2023/05/31 04:19:20;;;;;;;4.35;1.45;;;9.70;99.90;;;;;;5028077;28;20087;-73
2023/05/31 04:21:46;;;;;;;6.60;1.90;;;9.70;99.90;;;;;;5009111;28;20044;-73
2023/05/31 04:24:11;;;;;;;6.53;1.42;;;9.70;99.90;;;;;;5044317;28;20048;-73
2023/05/31 04:26:37;;;;;;;7.28;1.83;;;9.80;99.90;;;;;;5049449;28;20078;-73
2023/05/31 04:29:03;;;;;;;5.95;2.55;;;9.80;99.90;;;;;;5029210;28;21629;-73
2023/05/31 04:31:29;;;;;;;5.13;1.75;;;9.90;99.90;;;;;;5031233;28;20063;-72
2023/05/31 04:33:56;;;;;;;5.40;1.65;;;9.90;99.90;;;;;;5028247;28;20079;-73
2023/05/31 04:36:23;;;;;;;3.05;1.38;;;9.90;99.90;;;;;;5032490;28;20037;-73
2023/05/31 04:38:50;;;;;;;3.65;1.40;;;10.00;99.90;;;;;;5030013;28;20033;-73
2023/05/31 04:41:16;;;;;;;6.80;2.25;;;10.00;99.90;;;;;;5032701;28;20423;-73
2023/05/31 04:43:42;;;;;;;8.45;1.80;;;10.10;99.90;;;;;;5049479;28;20045;-73
2023/05/31 04:46:09;;;;;;;9.48;2.10;;;10.10;99.90;;;;;;5032061;28;20041;-73
2023/05/31 04:48:40;;;;;;;8.38;1.80;;;10.20;99.90;;;;;;5048100;28;20120;-73
2023/05/31 04:51:05;;;;;;;9.20;2.08;;;10.20;99.90;;;;;;5025408;28;20041;-73
2023/05/31 04:53:32;;;;;;;7.57;2.13;;;10.20;99.90;;;;;;5023744;28;20033;-73
2023/05/31 04:56:04;;;;;;;8.57;2.28;;;10.20;99.90;;;;;;5014589;28;20029;-73
2023/05/31 04:58:30;;;;;;;8.13;2.63;;;10.30;99.90;;;;;;5015083;28;20033;-73
2023/05/31 05:00:56;;;;;;;6.75;2.38;;;10.30;99.90;;;;;;5015399;28;20084;-73
2023/05/31 05:03:22;;;;;;;7.13;2.10;;;10.40;99.90;;;;;;5029912;28;20068;-73
2023/05/31 05:05:49;;;;;;;7.43;2.40;;;10.40;99.90;;;;;;5031195;28;20041;-73
2023/05/31 05:08:15;;;;;;;7.90;2.63;;;10.40;99.90;;;;;;5008900;28;20072;-73
2023/05/31 05:10:41;;;;;;;7.50;2.17;;;10.40;99.90;;;;;;5029671;28;20068;-73
2023/05/31 05:13:07;;;;;;;8.05;2.65;;;10.50;99.90;;;;;;5028614;28;20389;-73
2023/05/31 05:15:32;;;;;;;5.38;2.22;;;10.50;99.90;;;;;;5020848;28;20040;-73
2023/05/31 05:17:58;;;;;;;10.77;2.22;;;10.50;99.90;;;;;;5047080;28;20032;-73
2023/05/31 05:20:23;;;;;;;6.00;2.03;;;10.50;99.90;;;;;;5029334;28;20110;-73
2023/05/31 05:22:52;;;;;;;9.43;2.63;;;10.60;99.90;;;;;;5026562;28;20043;-73
2023/05/31 05:25:18;;;;;;;7.07;2.40;;;10.60;99.90;;;;;;5047423;28;20059;-73
2023/05/31 05:27:44;;;;;;;11.98;2.20;;;10.70;99.90;;;;;;5048949;28;20037;-73
2023/05/31 05:30:10;;;;;;;7.60;2.35;;;10.70;99.90;;;;;;5030861;28;20584;-73
2023/05/31 05:32:35;;;;;;;9.18;2.65;;;10.80;99.90;;;;;;5029843;28;20215;-73
2023/05/31 05:35:01;;;;;;;5.88;2.40;;;10.80;99.90;;;;;;5026714;28;20037;-73
2023/05/31 05:37:26;;;;;;;10.48;2.65;;;10.80;99.90;;;;;;5035849;28;20036;-72
2023/05/31 05:39:52;;;;;;;12.00;2.00;;;10.90;99.90;;;;;;5043825;28;20045;-73
2023/05/31 05:42:19;;;;;;;11.13;2.67;;;11.00;99.90;;;;;;5023056;28;20571;-73
2023/05/31 05:44:44;;;;;;;6.05;1.65;;;11.00;99.90;;;;;;5027780;28;20060;-73
2023/05/31 05:47:10;;;;;;;12.43;2.15;;;11.10;99.90;;;;;;5024316;28;20102;-73
2023/05/31 05:49:36;;;;;;;5.90;2.03;;;11.20;99.90;;;;;;5041020;28;20040;-74
2023/05/31 05:52:01;;;;;;;4.95;1.83;;;11.20;99.90;;;;;;5022976;28;20045;-73
2023/05/31 05:54:27;;;;;;;8.63;2.70;;;11.30;99.90;;;;;;5016659;28;20044;-73
2023/05/31 05:56:52;;;;;;;5.47;2.13;;;11.40;99.90;;;;;;5018176;28;20037;-73
2023/05/31 05:59:18;;;;;;;7.57;2.42;;;11.40;99.90;;;;;;5018391;28;20041;-74
2023/05/31 06:01:43;;;;;;;7.32;2.80;;;11.50;99.90;;;;;;5020294;28;20037;-73
2023/05/31 06:04:09;;;;;;;5.45;2.10;;;11.50;99.90;;;;;;5003024;28;20072;-73
2023/05/31 06:06:35;;;;;;;8.70;2.63;;;11.60;99.90;;;;;;5037318;28;20383;-70
2023/05/31 06:09:01;;;;;;;7.57;2.67;;;11.70;99.90;;;;;;4999067;28;20531;-73
2023/05/31 06:11:26;;;;;;;7.95;2.75;;;11.80;99.90;;;;;;5020677;28;20078;-71
2023/05/31 06:13:56;;;;;;;5.63;1.88;;;11.90;99.90;;;;;;5021876;28;20521;-73
2023/05/31 06:16:22;;;;;;;8.02;2.45;;;12.10;99.90;;;;;;5017259;28;20053;-73
2023/05/31 06:18:47;;;;;;;11.70;2.70;;;12.40;99.90;;;;;;5021918;28;20410;-72
2023/05/31 06:21:13;;;;;;;9.90;2.40;;;12.60;99.90;;;;;;5023743;28;20037;-73
2023/05/31 06:23:39;;;;;;;6.05;1.83;;;12.60;99.90;;;;;;5037415;28;20061;-72
2023/05/31 06:26:04;;;;;;;6.38;2.13;;;12.60;99.90;;;;;;5021836;28;20049;-73
2023/05/31 06:28:30;;;;;;;7.93;2.83;;;12.60;99.90;;;;;;5040992;28;20415;-73
2023/05/31 06:30:56;;;;;;;7.65;2.35;;;13.10;99.90;;;;;;5024252;28;20429;-73
2023/05/31 06:33:22;;;;;;;9.07;2.15;;;13.90;99.90;;;;;;5041686;28;20044;-73
2023/05/31 06:35:47;;;;;;;7.43;2.25;;;14.90;99.90;;;;;;5026583;28;20033;-73
2023/05/31 06:38:15;;;;;;;8.38;2.97;;;15.80;99.90;;;;;;5025069;28;20030;-73
2023/05/31 06:40:42;;;;;;;7.50;3.00;;;16.80;99.90;;;;;;5027514;28;20075;-73
2023/05/31 06:43:08;;;;;;;7.78;2.65;;;17.60;99.90;;;;;;5027583;28;20497;-73
2023/05/31 06:45:33;;;;;;;7.03;2.53;;;18.20;99.90;;;;;;5009263;28;20098;-73
2023/05/31 06:47:59;;;;;;;5.53;2.70;;;18.70;99.90;;;;;;5045674;28;20037;-73
2023/05/31 06:50:24;;;;;;;7.07;2.42;;;19.10;99.90;;;;;;5045754;28;20041;-73
2023/05/31 06:52:50;;;;;;;5.65;2.20;;;18.80;99.60;;;;;;5023589;28;20151;-74
2023/05/31 06:55:16;;;;;;;5.75;2.10;;;18.20;99.90;;;;;;5046335;28;20111;-74
2023/05/31 06:57:41;;;;;;;6.18;2.83;;;17.60;99.90;;;;;;5025660;28;20149;-73
2023/05/31 07:00:07;;;;;;;5.35;2.40;;;17.00;99.90;;;;;;5043315;28;20745;-73
2023/05/31 07:02:33;;;;;;;6.75;2.63;;;16.60;99.90;;;;;;5008398;28;20478;-73
2023/05/31 07:04:59;;;;;;;4.70;2.40;;;16.20;99.90;;;;;;5023949;28;20082;-73
2023/05/31 07:07:26;;;;;;;7.95;2.58;;;15.90;99.90;;;;;;5044251;28;20624;-73
2023/05/31 07:09:51;;;;;;;5.95;2.10;;;15.60;99.90;;;;;;5021986;28;20045;-73
2023/05/31 07:12:17;;;;;;;7.50;2.65;;;15.40;99.90;;;;;;5027061;28;20040;-72
2023/05/31 07:14:42;;;;;;;6.70;2.30;;;15.20;99.90;;;;;;5039191;28;20037;-72
2023/05/31 07:17:08;;;;;;;6.03;2.60;;;15.10;99.90;;;;;;5043161;28;20048;-73
2023/05/31 07:19:51;;;;;;;7.38;2.50;;;15.00;99.90;;;;;;5045715;28;20036;-72
2023/05/31 07:22:17;;;;;;;9.02;2.55;;;14.90;99.90;;;;;;5023857;28;20048;-73
2023/05/31 07:24:43;;;;;;;7.53;2.65;;;14.90;99.90;;;;;;5007519;28;20041;-72
2023/05/31 07:27:10;;;;;;;7.57;2.45;;;14.80;99.90;;;;;;5044749;28;20040;-72
2023/05/31 07:29:36;;;;;;;7.55;2.90;;;14.80;99.90;;;;;;5027506;28;20048;-72
2023/05/31 07:32:02;;;;;;;6.57;2.45;;;14.70;99.90;;;;;;5043571;28;20032;-72
2023/05/31 07:34:28;;;;;;;8.18;2.38;;;14.80;99.90;;;;;;5027743;28;20032;-74
2023/05/31 07:36:53;;;;;;;11.60;2.50;;;14.60;99.90;;;;;;5024544;28;20114;-73
2023/05/31 07:39:21;;;;;;;7.13;2.65;;;14.70;99.90;;;;;;5025468;28;20033;-73
2023/05/31 07:41:47;;;;;;;7.32;2.38;;;14.70;99.90;;;;;;5042262;28;20179;-72
2023/05/31 07:44:13;;;;;;;8.88;2.58;;;14.70;99.90;;;;;;5007566;28;20044;-73
2023/05/31 07:46:38;;;;;;;9.15;2.20;;;14.70;99.90;;;;;;5044757;28;20036;-72
2023/05/31 07:49:04;;;;;;;8.30;2.75;;;14.70;99.90;;;;;;5024464;28;20516;-72
2023/05/31 07:51:31;;;;;;;8.25;2.55;;;14.80;99.90;;;;;;5026948;28;20037;-73
2023/05/31 07:53:57;;;;;;;7.75;2.47;;;14.70;99.90;;;;;;5022424;28;20064;-72
2023/05/31 07:56:24;;;;;;;5.43;2.17;;;14.80;99.90;;;;;;5022813;28;20489;-73
2023/05/31 07:58:49;;;;;;;6.38;1.88;;;14.80;99.90;;;;;;5024066;28;20493;-72
2023/05/31 08:01:16;;;;;;;5.60;1.83;;;14.80;99.90;;;;;;5026412;28;20078;-72
2023/05/31 08:03:42;;;;;;;5.32;1.90;;;14.90;99.90;;;;;;5023727;28;20502;-72
2023/05/31 08:06:07;;;;;;;6.63;1.77;;;14.90;99.90;;;;;;5010097;28;20044;-72
2023/05/31 08:08:33;;;;;;;5.07;2.20;;;15.00;99.90;;;;;;5021574;28;20044;-73
2023/05/31 08:11:00;;;;;;;4.07;1.83;;;15.00;99.90;;;;;;5023971;28;20286;-72
2023/05/31 08:13:27;;;;;;;3.92;1.52;;;15.10;99.90;;;;;;5044137;28;20040;-72
2023/05/31 08:15:52;;;;;;;5.57;1.65;;;15.10;99.90;;;;;;5023706;28;20064;-72
2023/05/31 08:18:18;;;;;;;6.55;2.00;;;15.20;99.90;;;;;;5026408;28;20061;-72
2023/05/31 08:20:44;;;;;;;6.28;2.45;;;15.20;99.90;;;;;;5028691;28;20395;-73
2023/05/31 08:23:20;;;;;;;3.95;2.13;;;15.30;99.90;;;;;;5037454;28;20049;-73
2023/05/31 08:25:46;;;;;;;5.35;2.30;;;15.30;99.90;;;;;;5003837;28;20044;-73
2023/05/31 08:28:12;;;;;;;5.95;1.67;;;15.30;99.90;;;;;;5023828;28;20037;-72
2023/05/31 08:30:38;;;;;;;6.60;1.55;;;15.30;99.90;;;;;;5019767;28;20401;-73
2023/05/31 08:33:03;;;;;;;3.97;1.42;;;15.40;99.90;;;;;;5042763;28;20225;-72
2023/05/31 08:35:29;;;;;;;3.55;1.30;;;15.40;99.90;;;;;;5025123;28;20083;-72
2023/05/31 08:37:55;;;;;;;10.02;2.03;;;15.40;99.90;;;;;;5039480;28;20379;-72
2023/05/31 08:40:21;;;;;;;6.22;1.90;;;15.40;99.90;;;;;;5004605;28;20044;-73
2023/05/31 08:42:58;;;;;;;4.82;1.88;;;15.50;99.90;;;;;;5022554;28;20071;-73
2023/05/31 08:45:29;;;;;;;4.13;1.40;;;15.60;99.90;;;;;;5032555;28;20440;-72
2023/05/31 08:48:23;;;;;;;4.05;1.55;;;15.60;99.90;;;;;;5022623;28;20037;-72
2023/05/31 08:50:50;;;;;;;7.20;1.45;;;15.60;99.90;;;;;;5041701;28;20090;-72
2023/05/31 08:53:17;;;;;;;7.18;1.70;;;15.70;99.90;;;;;;5016461;28;20037;-73
2023/05/31 08:55:46;;;;;;;4.25;1.67;;;15.70;99.90;;;;;;5041611;28;20041;-73
2023/05/31 08:58:12;;;;;;;4.63;1.60;;;15.80;99.90;;;;;;5022687;28;20094;-72
2023/05/31 09:00:38;;;;;;;5.68;1.70;;;15.80;99.90;;;;;;5022387;28;20036;-73
2023/05/31 09:03:07;;;;;;;4.15;1.55;;;15.90;99.90;;;;;;5024335;28;20041;-72
2023/05/31 09:05:32;;;;;;;4.15;1.40;;;16.00;99.90;;;;;;5038614;28;20040;-72
2023/05/31 09:08:02;;;;;;;4.85;1.60;;;16.00;99.90;;;;;;5023355;28;20059;-71
2023/05/31 09:10:28;;;;;;;6.35;1.90;;;16.00;99.90;;;;;;5050618;28;20033;-72
2023/05/31 09:12:54;;;;;;;7.60;1.52;;;16.10;99.90;;;;;;5040875;28;20028;-72
2023/05/31 09:15:23;;;;;;;4.18;1.65;;;16.10;99.90;;;;;;5021447;28;21943;-72
2023/05/31 09:17:50;;;;;;;4.25;1.48;;;16.20;99.90;;;;;;5039665;28;20112;-72
2023/05/31 09:20:18;;;;;;;7.00;2.00;;;16.20;99.90;;;;;;5023762;28;20116;-72
2023/05/31 09:22:50;;;;;;;6.72;1.48;;;16.30;99.90;;;;;;5037123;28;20592;-72
2023/05/31 09:25:16;;;;;;;4.28;1.70;;;16.20;99.90;;;;;;5019648;28;20088;-72
2023/05/31 09:27:44;;;;;;;5.55;1.23;;;16.40;99.90;;;;;;5023766;28;20498;-72
2023/05/31 09:30:14;;;;;;;4.07;1.60;;;16.40;99.90;;;;;;5019216;28;20059;-73
2023/05/31 09:32:40;;;;;;;5.80;1.70;;;16.50;99.90;;;;;;5007523;28;20029;-72
2023/05/31 09:35:17;;;;;;;3.80;1.40;;;16.60;99.90;;;;;;5025686;28;20037;-72
2023/05/31 09:37:48;;;;;;;3.75;1.50;;;16.50;99.90;;;;;;5019348;28;20479;-72
2023/05/31 09:40:29;;;;;;;3.78;1.30;;;16.60;99.90;;;;;;5042442;28;21105;-72
2023/05/31 09:42:55;;;;;;;5.78;1.63;;;16.70;99.90;;;;;;5021126;28;20533;-72
2023/05/31 09:45:22;;;;;;;4.30;1.42;;;16.70;99.90;;;;;;5036137;28;20824;-72
2023/05/31 09:47:48;;;;;;;3.72;1.88;;;16.70;99.90;;;;;;5018437;28;20037;-72
2023/05/31 09:50:18;;;;;;;2.85;1.42;;;16.70;99.90;;;;;;5037022;28;20102;-72
2023/05/31 09:52:46;;;;;;;5.93;1.73;;;16.70;99.90;;;;;;5014246;28;20331;-72
2023/05/31 09:55:14;;;;;;;5.43;1.83;;;16.80;99.90;;;;;;5020676;28;20528;-72
2023/05/31 09:57:41;;;;;;;5.22;1.58;;;16.80;99.90;;;;;;5021126;28;20037;-72
2023/05/31 10:00:20;;;;;;;5.90;1.80;;;16.90;99.90;;;;;;5021083;28;20574;-72
2023/05/31 10:02:54;;;;;;;4.97;1.75;;;16.90;99.90;;;;;;5020518;28;20073;-72
2023/05/31 10:05:21;;;;;;;3.83;1.65;;;17.00;99.60;;;;;;5024940;28;20045;-72
2023/05/31 10:07:48;;;;;;;9.75;1.60;;;17.00;99.90;;;;;;5025332;28;20123;-72
2023/05/31 10:10:15;;;;;;;5.50;1.80;;;17.00;99.80;;;;;;5030473;28;20033;-73
2023/05/31 10:13:02;;;;;;;5.47;1.52;;;17.00;99.90;;;;;;5023892;28;20445;-72
2023/05/31 10:15:31;;;;;;;6.30;2.03;;;17.00;99.70;;;;;;5042333;28;20124;-72
2023/05/31 10:18:13;;;;;;;6.00;1.80;;;17.20;99.90;;;;;;5022624;28;20045;-72
2023/05/31 10:20:49;;;;;;;5.50;1.27;;;17.20;99.70;;;;;;5009997;28;20045;-72
2023/05/31 10:23:21;;;;;;;3.58;1.52;;;17.20;99.90;;;;;;5023931;28;20056;-72
2023/05/31 10:25:57;;;;;;;3.45;1.63;;;17.30;99.70;;;;;;5030745;28;20099;-73
2023/05/31 10:28:28;;;;;;;5.55;1.92;;;17.30;99.60;;;;;;5043313;28;20039;-72
2023/05/31 10:30:55;;;;;;;3.00;1.40;;;17.30;99.60;;;;;;5025939;28;20536;-72
2023/05/31 10:33:22;;;;;;;4.00;1.30;;;17.40;99.50;;;;;;5026405;28;20375;-72
2023/05/31 10:35:50;;;;;;;5.00;2.42;;;17.50;99.70;;;;;;5026401;28;20045;-72
2023/05/31 10:38:20;;;;;;;4.82;1.58;;;17.60;99.60;;;;;;5044445;28;20394;-72
2023/05/31 10:40:47;;;;;;;3.97;1.60;;;17.60;99.70;;;;;;5006711;28;20064;-72
2023/05/31 10:43:36;;;;;;;3.08;1.42;;;17.70;99.80;;;;;;5023321;28;20608;-72
2023/05/31 10:46:10;;;;;;;8.65;2.03;;;17.80;99.40;;;;;;5040606;28;20047;-72
2023/05/31 10:48:55;;;;;;;4.93;1.40;;;17.80;99.70;;;;;;5024487;28;20555;-72
2023/05/31 10:51:40;;;;;;;;;;;17.90;99.70;;;;;;5024768;28;20041;-72
2023/05/31 10:54:06;;;;;;;4.43;1.65;;;17.90;99.70;;;;;;5019529;28;19924;-72
2023/05/31 10:56:31;;;;;;;7.57;1.50;;;17.90;99.90;;;;;;5008410;28;20044;-73
2023/05/31 10:58:57;;;;;;;4.93;1.75;;;17.80;99.90;;;;;;5042979;28;20044;-72
2023/05/31 11:01:28;;;;;;;4.70;1.85;;;17.90;99.90;;;;;;5041516;28;20490;-72
2023/05/31 11:03:57;;;;;;;6.10;2.13;;;17.90;99.70;;;;;;5007438;28;20090;-72
2023/05/31 11:06:30;;;;;;;9.02;2.63;;;17.80;99.90;;;;;;5024520;28;20043;-73
2023/05/31 11:09:14;;;;;;;6.47;1.65;;;17.80;99.90;;;;;;5025449;28;20441;-72
2023/05/31 11:11:40;;;;;;;5.70;1.98;;;17.80;99.90;;;;;;5040604;28;20289;-72
2023/05/31 11:14:16;;;;;;;5.20;1.83;;;17.80;99.90;;;;;;5024961;28;20045;-72
2023/05/31 11:16:47;;;;;;;5.57;2.08;;;17.80;99.90;;;;;;5022974;28;20483;-73
2023/05/31 11:19:15;;;;;;;5.50;2.10;;;17.80;99.90;;;;;;5022408;28;20041;-73
2023/05/31 11:21:47;;;;;;;6.32;2.20;;;17.80;99.90;;;;;;5020889;28;20041;-73
2023/05/31 11:24:27;;;;;;;7.60;1.98;;;17.80;99.90;;;;;;5018737;28;20067;-73
2023/05/31 11:26:54;;;;;;;6.60;2.00;;;17.80;99.70;;;;;;5023121;28;20041;-74
2023/05/31 11:29:20;;;;;;;5.68;2.20;;;17.80;99.90;;;;;;5022994;28;20071;-73
2023/05/31 11:31:54;;;;;;;6.68;1.98;;;17.80;99.90;;;;;;5024709;28;20068;-73
2023/05/31 11:34:33;;;;;;;5.95;2.38;;;17.80;99.20;;;;;;5024750;28;20035;-72
2023/05/31 11:37:00;;;;;;;5.25;2.15;;;17.80;99.40;;;;;;5009410;28;20040;-72
2023/05/31 11:39:26;;;;;;;7.25;2.17;;;17.80;99.50;;;;;;5039707;28;20061;-72
2023/05/31 11:41:54;;;;;;;4.47;2.03;;;17.80;99.60;;;;;;5020748;28;20133;-72
2023/05/31 11:44:30;;;;;;;3.92;1.83;;;17.80;99.30;;;;;;5009524;28;20033;-72
2023/05/31 11:47:01;;;;;;;3.58;1.92;;;17.80;99.20;;;;;;5038126;28;20045;-72
2023/05/31 11:49:27;;;;;;;5.20;2.22;;;17.80;99.20;;;;;;5022859;28;20059;-73
2023/05/31 11:51:55;;;;;;;6.72;2.35;;;17.80;99.20;;;;;;5024850;28;20450;-72
2023/05/31 11:54:29;;;;;;;7.05;2.20;;;17.80;99.10;;;;;;5031181;28;20037;-73
2023/05/31 11:56:58;;;;;;;7.25;2.28;;;17.80;99.10;;;;;;5024309;28;20033;-72
2023/05/31 11:59:25;;;;;;;5.20;1.98;;;17.80;99.00;;;;;;5045678;28;20147;-71
2023/05/31 12:01:50;;;;;;;6.53;2.13;;;17.90;98.70;;;;;;5021224;28;20502;-72
2023/05/31 12:04:16;;;;;;;4.72;2.03;;;17.90;98.80;;;;;;5021716;28;20295;-73
2023/05/31 12:06:41;;;;;;;6.97;2.30;;;17.90;98.80;;;;;;5007310;28;20067;-72
2023/05/31 12:09:11;;;;;;;6.35;2.50;;;17.90;98.60;;;;;;5040296;28;20033;-72
2023/05/31 12:11:37;;;;;;;7.05;2.22;;;18.00;98.40;;;;;;5041488;28;20068;-73
2023/05/31 12:14:02;;;;;;;6.05;2.40;;;18.00;98.50;;;;;;5004885;28;20044;-73
2023/05/31 12:16:28;;;;;;;7.72;2.20;;;18.00;99.10;;;;;;5024000;28;20037;-72
2023/05/31 12:18:54;;;;;;;5.93;2.30;;;18.10;98.70;;;;;;5020844;28;20069;-73
2023/05/31 12:21:20;;;;;;;6.45;2.28;;;18.10;98.60;;;;;;5010113;28;20032;-72
2023/05/31 12:23:58;;;;;;;4.72;1.95;;;18.10;98.30;;;;;;5018213;28;20303;-72
2023/05/31 12:26:26;;;;;;;7.47;2.10;;;18.10;97.30;;;;;;5023379;28;20049;-72
2023/05/31 12:28:52;;;;;;;6.07;2.60;;;18.10;97.70;;;;;;5024964;28;20049;-72
2023/05/31 12:31:25;;;;;;;5.10;1.80;;;18.10;97.90;;;;;;5006824;28;20047;-73
2023/05/31 12:33:59;;;;;;;4.20;1.80;;;18.10;97.70;;;;;;5023862;28;20048;-71
2023/05/31 12:36:26;;;;;;;4.85;1.80;;;18.10;97.60;;;;;;5009638;28;20103;-72
2023/05/31 12:38:57;;;;;;;5.57;1.90;;;18.20;97.70;;;;;;5039552;28;20036;-72
2023/05/31 12:41:23;;;;;;;3.88;1.60;;;18.20;97.60;;;;;;5022782;28;20036;-72
2023/05/31 12:43:49;;;;;;;4.00;1.63;;;18.20;97.80;;;;;;5040572;28;20049;-72
2023/05/31 12:46:18;;;;;;;5.95;1.58;;;18.20;97.70;;;;;;5025335;28;20038;-72
2023/05/31 12:48:48;;;;;;;4.95;1.50;;;18.20;97.40;;;;;;5036502;28;20044;-72
2023/05/31 12:51:20;;;;;;;4.15;1.45;;;18.20;97.30;;;;;;5007643;28;20040;-73